Flight Track Log - Related Links

Times and Time Zones

All times are in EDT time to prevent confusion due to time zone crossing. See the USC105 flight status page for this flight to view local times or setup timezone preferences in your user account.

Time Position Orientation Groundspeed Altitude Reporting Facility
EDT Latitude Longitude Course Direction KTS MPH feet Rate Location/Type
Fri 06:38:32 AM 42.2108 -83.5661 230° Southwest 110 127 2,400  Level Cleveland Center
Fri 06:39:33 AM 42.1833 -83.5872 210° Southwest 148 170 3,300 991 Climbing Cleveland Center
Fri 06:40:27 AM 42.1475 -83.6022 197° South 138 159 4,300 887 Climbing Cleveland Center
Fri 06:41:28 AM 42.1097 -83.6089 187° South 160 184 5,000 347 Climbing Cleveland Center
Fri 06:42:28 AM 42.0667 -83.5817 155° Southeast 179 206 5,000 190 Level Cleveland Center
Fri 06:43:00 AM 41.9829 -83.4415 160° South  Level FlightAware Approximate
Fri 06:44:00 AM 42.0000 -83.5616 160° South  Level Estimated
Fri 06:51:00 AM 41.6954 -83.4707 164° South  Level Estimated
Fri 06:51:27 AM 41.6539 -83.4083 162° South 186 214 6,900  Level Indianapolis Center
Fri 06:52:00 AM 41.6518 -83.4578 180° South  Level Estimated
Fri 06:52:27 AM 41.6000 -83.3939 169° South 191 220 6,900  Level Indianapolis Center
Fri 06:53:00 AM 41.6050 -83.4374 162° South  Level FlightAware Approximate
Fri 06:53:28 AM 41.5456 -83.3794 169° South 195 224 6,900  Level Indianapolis Center
Fri 06:54:00 AM 41.5582 -83.4170 162° South  Level FlightAware Approximate
Fri 06:54:29 AM 41.4925 -83.3658 169° South 194 223 6,900  Level Indianapolis Center
Fri 06:55:00 AM 41.5114 -83.3966 162° South  Level FlightAware Approximate
Fri 06:55:30 AM 41.4381 -83.3506 168° South 196 226 6,900  Level Indianapolis Center
Fri 06:56:00 AM 41.4646 -83.3763 162° South  Level FlightAware Approximate
Fri 06:56:31 AM 41.3847 -83.3356 168° South 196 226 6,900  Level Indianapolis Center
Fri 06:57:31 AM 41.3294 -83.3219 170° South 198 228 6,900  Level Indianapolis Center
Fri 06:58:32 AM 41.2661 -83.3047 168° South 198 228 6,900  Level Indianapolis Center
Fri 06:59:33 AM 41.2122 -83.2911 169° South 197 227 6,900  Level Indianapolis Center
Fri 07:00:34 AM 41.1569 -83.2753 168° South 199 229 6,900 49 Level Indianapolis Center
Fri 07:01:35 AM 41.1028 -83.2617 169° South 198 228 7,000 49 Climbing Indianapolis Center
Fri 07:02:36 AM 41.0472 -83.2472 169° South 200 230 7,000  Level Indianapolis Center
Fri 07:03:37 AM 40.9928 -83.2325 168° South 200 230 7,000  Level Indianapolis Center
Fri 07:04:38 AM 40.9378 -83.2186 169° South 200 230 7,000  Level Indianapolis Center
Fri 07:05:39 AM 40.8828 -83.2036 168° South 200 230 7,000  Level Indianapolis Center
Fri 07:06:40 AM 40.8289 -83.1889 168° South 198 228 7,000  Level Indianapolis Center
Fri 07:07:41 AM 40.7706 -83.1742 169° South 200 230 7,000  Level Indianapolis Center
Fri 07:08:42 AM 40.7161 -83.1594 168° South 198 228 7,000  Level Indianapolis Center
Fri 07:09:43 AM 40.6633 -83.1467 170° South 200 230 7,000  Level Indianapolis Center
Fri 07:10:44 AM 40.6094 -83.1322 168° South 196 226 7,000  Level Indianapolis Center
Fri 07:11:45 AM 40.5544 -83.1167 168° South 199 229 7,000  Level Indianapolis Center
Fri 07:12:46 AM 40.4967 -83.1019 169° South 199 229 7,000  Level Indianapolis Center
Fri 07:13:47 AM 40.4425 -83.0764 160° South 203 234 7,000  Level Indianapolis Center
Fri 07:14:30 AM 40.4028 -83.0575 160° South 205 236 7,000  Level Indianapolis Center
Fri 07:14:48 AM 40.3900 -83.0469 148° Southeast 202 232 7,000  Level Indianapolis Center
Fri 07:15:31 AM 40.3522 -83.0297 161° South 204 235 7,000  Level Indianapolis Center
Fri 07:15:49 AM 40.3369 -83.0181 150° Southeast 204 235 7,000  Level Indianapolis Center
Fri 07:16:32 AM 40.3000 -82.9989 158° South 204 235 7,000 -197 Level Indianapolis Center
Fri 07:16:50 AM 40.2839 -82.9883 153° Southeast 205 236 6,800 -600 Descending Indianapolis Center
Fri 07:17:32 AM 40.2456 -82.9681 158° South 209 241 6,400 -581 Descending Indianapolis Center
Fri 07:17:52 AM 40.2297 -82.9575 153° Southeast 208 239 6,200 -393 Descending Indianapolis Center
Fri 07:18:33 AM 40.1869 -82.9394 162° South 210 242 6,000 -197 Descending Indianapolis Center
Fri 07:18:53 AM 40.1758 -82.9300 147° Southeast 207 238 6,000  Level Indianapolis Center
Fri 07:19:34 AM 40.1383 -82.9147 163° South 191 220 6,000  Level Indianapolis Center
Fri 07:19:54 AM 40.1264 -82.9078 156° South 189 217 6,000  Level Indianapolis Center
Fri 07:20:34 AM 40.0897 -82.8903 160° South 182 209 6,000  Level Indianapolis Center
Fri 07:20:55 AM 40.0781 -82.8822 152° Southeast 185 213 6,000 -689 Level Indianapolis Center
Fri 07:21:35 AM 40.0411 -82.8656 161° South 188 216 5,300 -1,065 Descending Indianapolis Center
Fri 07:21:57 AM 40.0275 -82.8592 160° South 189 217 4,900 -1,200 Descending Indianapolis Center
Fri 07:22:35 AM 39.9856 -82.8511 172° South 202 232 4,100 -1,082 Descending Indianapolis Center
Fri 07:22:58 AM 39.9714 -82.8478 170° South 199 229 3,800 -1,279 Descending Indianapolis Center
Fri 07:23:36 AM 39.9333 -82.8506 183° South 194 223 2,800 -1,279 Descending Indianapolis Center
Fri 07:23:59 AM 39.9181 -82.8531 187° South 196 226 2,500 -393 Descending Indianapolis Center
Fri 07:24:37 AM 39.8844 -82.8614 191° South 181 208 2,400 -295 Descending Indianapolis Center
Fri 07:25:00 AM 39.8697 -82.8661 194° South 186 214 2,200 -1,000 Descending Indianapolis Center
Fri 07:25:37 AM 39.8472 -82.8869 215° Southwest 156 180 1,400 -968 Descending Indianapolis Center
Fri 07:26:02 AM 39.8386 -82.8947 215° Southwest 153 176 1,200 -419 Descending Indianapolis Center
Fri 07:27:03 AM 39.8122 -82.9283 224° Southwest 141 162 800 -393 Descending Indianapolis Center

Login

Don't have an account? Register now (free) for customized features, flight alerts, and more!